Time;durP1;ratioP1;P1;durP2;ratioP2;P2;SDS_P1;SDS_P2;PMS_P1;PMS_P2;Temp;Humidity;BMP_temperature;BMP_pressure;BME280_temperature;BME280_humidity;BME280_pressure;Samples;Min_cycle;Max_cycle;Signal;HPM_P1;HPM_P2
2022/04/19 00:00:32;;;;;;;1.75;0.32;;;24.10;99.90;;;;;;5034280;28;20040;-71
2022/04/19 00:03:00;;;;;;;1.08;0.50;;;24.10;99.90;;;;;;5067576;23;20045;-71
2022/04/19 00:05:28;;;;;;;1.05;0.45;;;24.20;99.90;;;;;;5052466;28;20426;-71
2022/04/19 00:07:56;;;;;;;1.00;0.20;;;24.20;99.90;;;;;;5052220;28;20111;-70
2022/04/19 00:10:23;;;;;;;1.00;0.50;;;24.40;99.90;;;;;;5052187;28;20033;-70
2022/04/19 00:12:50;;;;;;;1.92;0.40;;;24.40;99.90;;;;;;5044415;28;20048;-71
2022/04/19 00:15:18;;;;;;;3.85;0.45;;;24.60;99.90;;;;;;5029962;28;20068;-70
2022/04/19 00:17:45;;;;;;;1.45;0.40;;;24.70;99.90;;;;;;5032120;28;20116;-70
2022/04/19 00:20:12;;;;;;;2.00;0.30;;;24.80;99.90;;;;;;5049083;28;20025;-71
2022/04/19 00:22:39;;;;;;;2.15;0.60;;;25.00;99.90;;;;;;5052613;28;20428;-70
2022/04/19 00:25:08;;;;;;;1.95;0.20;;;24.60;99.90;;;;;;5047888;28;20036;-70
2022/04/19 00:27:35;;;;;;;1.02;0.30;;;24.50;99.90;;;;;;5031246;28;20037;-71
2022/04/19 00:30:03;;;;;;;1.85;0.30;;;24.50;99.90;;;;;;5048191;28;20036;-71
2022/04/19 00:32:30;;;;;;;2.85;0.80;;;24.60;99.90;;;;;;5032959;28;20060;-70
2022/04/19 00:34:59;;;;;;;3.35;0.40;;;24.90;99.90;;;;;;5045837;28;20029;-71
2022/04/19 00:37:26;;;;;;;1.90;0.20;;;25.10;99.90;;;;;;5052031;28;20059;-70
2022/04/19 00:39:57;;;;;;;0.98;0.50;;;24.90;99.90;;;;;;5050315;28;20505;-70
2022/04/19 00:42:27;;;;;;;0.52;0.30;;;25.10;99.90;;;;;;5049023;28;20100;-68
2022/04/19 00:44:56;;;;;;;1.15;0.22;;;25.20;99.90;;;;;;5049370;28;20067;-69
2022/04/19 00:47:23;;;;;;;2.65;0.40;;;25.30;99.90;;;;;;5051397;28;20380;-68
2022/04/19 00:49:51;;;;;;;2.33;0.30;;;25.10;99.90;;;;;;5051322;28;20393;-68
2022/04/19 00:52:22;;;;;;;2.17;0.40;;;25.40;99.90;;;;;;5034551;28;20033;-68
2022/04/19 00:54:49;;;;;;;1.33;0.32;;;25.60;99.90;;;;;;5051268;28;20029;-69
2022/04/19 00:57:16;;;;;;;0.98;0.22;;;25.90;99.90;;;;;;5029103;28;20068;-69
2022/04/19 00:59:47;;;;;;;2.35;0.85;;;26.40;99.90;;;;;;5027819;28;20571;-69
2022/04/19 01:02:14;;;;;;;2.35;0.70;;;26.60;99.90;;;;;;5036915;28;20559;-69
2022/04/19 01:04:41;;;;;;;1.73;0.30;;;26.90;99.90;;;;;;5028904;28;20030;-69
2022/04/19 01:07:09;;;;;;;0.88;0.20;;;26.60;99.90;;;;;;5036786;28;20515;-69
2022/04/19 01:09:36;;;;;;;0.47;0.30;;;26.80;99.90;;;;;;5037797;28;20026;-69
2022/04/19 01:14:51;;;;;;;2.65;0.40;;;27.20;99.90;;;;;;5024075;28;20569;-69
2022/04/19 01:17:18;;;;;;;2.55;0.50;;;26.90;99.90;;;;;;5031267;28;20026;-69
2022/04/19 01:19:46;;;;;;;2.55;0.82;;;27.20;99.90;;;;;;5029593;28;20026;-69
2022/04/19 01:22:19;;;;;;;1.98;0.30;;;27.20;99.90;;;;;;5040677;28;20030;-69
2022/04/19 01:24:47;;;;;;;1.53;0.30;;;27.60;99.90;;;;;;5034152;28;20040;-69
2022/04/19 01:27:14;;;;;;;0.95;0.40;;;27.30;99.90;;;;;;5048283;28;20275;-70
2022/04/19 01:29:42;;;;;;;1.48;0.32;;;27.60;99.90;;;;;;5026410;28;20418;-69
2022/04/19 01:32:10;;;;;;;1.73;0.20;;;27.60;99.90;;;;;;5026622;28;20021;-68
2022/04/19 01:34:37;;;;;;;0.38;0.22;;;27.30;99.90;;;;;;5034113;28;20025;-69
2022/04/19 01:37:04;;;;;;;0.82;0.20;;;27.70;99.90;;;;;;5030244;28;20025;-69
2022/04/19 01:42:17;;;;;;;3.53;0.60;;;27.70;99.90;;;;;;5030116;28;20133;-69
2022/04/19 01:44:44;;;;;;;1.08;0.47;;;27.90;99.90;;;;;;5034209;28;20108;-69
2022/04/19 01:47:11;;;;;;;0.52;0.20;;;27.90;99.90;;;;;;5029550;28;20026;-69
2022/04/19 01:49:38;;;;;;;0.82;0.47;;;28.30;99.90;;;;;;5029513;28;20021;-69
2022/04/19 01:52:08;;;;;;;1.50;0.30;;;28.30;99.90;;;;;;5031179;28;20040;-69
2022/04/19 01:54:36;;;;;;;0.90;0.25;;;27.90;99.90;;;;;;5033288;28;20029;-69
2022/04/19 01:57:03;;;;;;;2.72;0.30;;;28.30;99.90;;;;;;5034309;28;20136;-68
2022/04/19 01:59:31;;;;;;;0.82;0.22;;;28.90;99.90;;;;;;5029770;28;20033;-69
2022/04/19 02:01:58;;;;;;;0.85;0.28;;;28.90;99.90;;;;;;5033092;28;20045;-69
2022/04/19 02:04:25;;;;;;;2.97;0.40;;;28.20;99.90;;;;;;5030403;28;20567;-69
2022/04/19 02:06:53;;;;;;;1.77;0.40;;;27.60;99.90;;;;;;5031656;28;20379;-69
2022/04/19 02:09:20;;;;;;;1.95;0.40;;;27.60;99.90;;;;;;5026670;28;20481;-69
2022/04/19 02:11:47;;;;;;;1.63;0.40;;;27.80;99.90;;;;;;5030299;28;20074;-69
2022/04/19 02:14:14;;;;;;;1.45;0.30;;;27.30;99.90;;;;;;5041071;28;20418;-69
2022/04/19 02:16:42;;;;;;;0.90;0.20;;;27.30;99.90;;;;;;5034758;28;20037;-68
2022/04/19 02:19:09;;;;;;;2.47;0.70;;;27.60;99.90;;;;;;5031884;28;20042;-69
2022/04/19 02:21:38;;;;;;;1.95;0.30;;;28.20;99.90;;;;;;5028443;28;20454;-68
2022/04/19 02:24:05;;;;;;;3.45;0.35;;;27.90;99.90;;;;;;5030555;28;20041;-68
2022/04/19 02:26:32;;;;;;;1.25;0.20;;;28.00;99.90;;;;;;5036932;28;20409;-69
2022/04/19 02:29:00;;;;;;;1.52;0.32;;;28.20;99.90;;;;;;5029534;28;20509;-69
2022/04/19 02:31:27;;;;;;;0.63;0.20;;;28.30;99.90;;;;;;5032916;28;20125;-69
2022/04/19 02:33:56;;;;;;;0.85;0.10;;;28.70;99.90;;;;;;5029227;28;20060;-69
2022/04/19 02:36:23;;;;;;;3.08;0.20;;;28.60;99.90;;;;;;5029167;28;20056;-69
2022/04/19 02:38:50;;;;;;;1.80;0.30;;;28.30;99.70;;;;;;5033436;28;20494;-69
2022/04/19 02:41:17;;;;;;;2.85;0.20;;;27.90;99.20;;;;;;5030833;28;20065;-69
2022/04/19 02:43:45;;;;;;;3.63;0.40;;;28.10;99.20;;;;;;5030164;28;20029;-70
2022/04/19 02:46:13;;;;;;;0.93;0.20;;;28.10;99.30;;;;;;5028615;28;20103;-69
2022/04/19 02:48:40;;;;;;;0.68;0.13;;;28.10;99.90;;;;;;5034800;28;20029;-68
2022/04/19 02:51:08;;;;;;;0.40;0.10;;;27.60;98.80;;;;;;5031221;28;20022;-69
2022/04/19 02:53:36;;;;;;;0.65;0.10;;;27.70;99.90;;;;;;5031602;28;20160;-69
2022/04/19 02:56:04;;;;;;;2.97;0.30;;;28.40;99.40;;;;;;5026774;28;20070;-69
2022/04/19 02:58:32;;;;;;;0.32;0.05;;;28.60;99.40;;;;;;5025460;28;20033;-69
2022/04/19 03:00:59;;;;;;;2.47;0.20;;;29.00;98.90;;;;;;5024812;28;20565;-68
2022/04/19 03:03:29;;;;;;;2.08;0.40;;;28.40;98.10;;;;;;5032175;28;20033;-68
2022/04/19 03:05:57;;;;;;;0.85;0.40;;;27.90;99.90;;;;;;5026644;28;20104;-70
2022/04/19 03:08:25;;;;;;;1.35;0.20;;;28.00;98.70;;;;;;5028772;28;20018;-69
2022/04/19 03:10:52;;;;;;;2.13;0.10;;;28.30;99.20;;;;;;5024781;28;20025;-69
2022/04/19 03:13:19;;;;;;;1.65;0.22;;;28.80;99.10;;;;;;5028702;28;20017;-69
2022/04/19 03:15:46;;;;;;;4.43;0.20;;;28.30;99.20;;;;;;5028093;28;20032;-69
2022/04/19 03:18:14;;;;;;;0.63;0.20;;;28.40;98.50;;;;;;5034618;28;20033;-68
2022/04/19 03:20:45;;;;;;;3.40;0.68;;;27.90;99.90;;;;;;5023601;28;20018;-69
2022/04/19 03:28:47;;;;;;;2.42;0.28;;;27.50;99.40;;;;;;5028047;28;20393;-69
2022/04/19 03:31:14;;;;;;;1.23;0.20;;;27.60;99.00;;;;;;5027795;28;20052;-68
2022/04/19 03:33:41;;;;;;;2.45;0.30;;;27.70;99.90;;;;;;5033739;28;20397;-69
2022/04/19 03:36:09;;;;;;;1.77;0.28;;;28.40;98.90;;;;;;5031118;28;20423;-68
2022/04/19 03:38:37;;;;;;;3.20;0.43;;;28.30;98.80;;;;;;5026408;28;20026;-69
2022/04/19 03:41:04;;;;;;;2.72;0.40;;;27.70;98.50;;;;;;5030569;28;20029;-69
2022/04/19 03:43:32;;;;;;;1.25;0.20;;;28.10;98.80;;;;;;5024187;28;20393;-69
2022/04/19 03:46:00;;;;;;;1.13;0.20;;;28.10;98.90;;;;;;5027856;28;20053;-68
2022/04/19 03:48:28;;;;;;;1.42;0.38;;;28.30;98.40;;;;;;5026687;28;20429;-68
2022/04/19 03:50:55;;;;;;;2.00;0.30;;;27.60;98.80;;;;;;5026862;28;20546;-68
2022/04/19 03:53:22;;;;;;;2.20;0.40;;;27.60;99.90;;;;;;5031059;28;20029;-68
2022/04/19 03:55:49;;;;;;;3.03;0.40;;;27.50;98.80;;;;;;5031356;28;20108;-68
2022/04/19 03:58:17;;;;;;;1.42;0.28;;;27.30;99.60;;;;;;5031789;28;20026;-69
2022/04/19 04:00:44;;;;;;;2.55;0.22;;;27.60;99.90;;;;;;5030988;28;20028;-69
2022/04/19 04:03:12;;;;;;;1.55;0.20;;;27.80;98.90;;;;;;5030763;28;20029;-69
2022/04/19 04:05:39;;;;;;;1.00;0.43;;;27.60;99.50;;;;;;5033275;28;20116;-69
2022/04/19 04:08:07;;;;;;;1.92;0.30;;;27.30;99.10;;;;;;5033250;28;20057;-69
2022/04/19 04:10:34;;;;;;;1.23;0.40;;;27.00;99.80;;;;;;5022287;28;20021;-69
2022/04/19 04:13:04;;;;;;;3.95;0.28;;;27.20;99.90;;;;;;5025116;28;20030;-68
2022/04/19 04:15:31;;;;;;;2.72;0.20;;;27.50;99.60;;;;;;5021077;28;20098;-68
2022/04/19 04:17:58;;;;;;;0.63;0.20;;;27.40;99.90;;;;;;5033083;28;20026;-69
2022/04/19 04:20:26;;;;;;;0.68;0.20;;;27.30;99.90;;;;;;5029052;28;20021;-69
2022/04/19 04:22:53;;;;;;;1.65;0.10;;;27.30;99.90;;;;;;5034392;28;20025;-69
2022/04/19 04:25:21;;;;;;;1.58;0.45;;;27.30;99.90;;;;;;5028928;28;20057;-69
2022/04/19 04:27:48;;;;;;;2.47;0.30;;;27.30;99.90;;;;;;5026869;28;20022;-68
2022/04/19 04:30:16;;;;;;;2.88;0.22;;;27.20;99.70;;;;;;5036172;28;20489;-69
2022/04/19 04:32:44;;;;;;;1.23;0.32;;;27.10;99.90;;;;;;5030390;28;20040;-69
2022/04/19 04:35:11;;;;;;;5.38;1.73;;;27.20;99.90;;;;;;5025929;28;20025;-70
2022/04/19 04:37:39;;;;;;;6.65;1.20;;;26.80;99.90;;;;;;5049189;28;20052;-69
2022/04/19 04:40:07;;;;;;;7.07;0.93;;;26.70;99.90;;;;;;5015035;28;20037;-69
2022/04/19 04:42:34;;;;;;;6.60;1.30;;;26.80;99.90;;;;;;5022721;28;20038;-69
2022/04/19 04:45:01;;;;;;;11.48;1.80;;;26.60;99.90;;;;;;5029409;28;20032;-69
2022/04/19 04:50:15;;;;;;;7.60;0.95;;;26.10;99.90;;;;;;5024234;28;20076;-69
2022/04/19 04:52:42;;;;;;;3.38;0.70;;;26.10;99.90;;;;;;5030098;28;20028;-69
2022/04/19 04:55:09;;;;;;;4.97;0.98;;;26.00;99.90;;;;;;5031355;28;20036;-68
2022/04/19 04:57:36;;;;;;;4.40;0.90;;;25.90;99.90;;;;;;5036659;28;20030;-68
2022/04/19 05:00:05;;;;;;;5.38;1.20;;;25.80;99.90;;;;;;5037518;28;20033;-69
2022/04/19 05:02:32;;;;;;;4.43;0.68;;;25.70;99.90;;;;;;5028767;28;20073;-69
2022/04/19 05:04:59;;;;;;;5.10;1.25;;;25.60;99.90;;;;;;5027306;28;20033;-69
2022/04/19 05:07:27;;;;;;;6.45;1.30;;;25.50;99.90;;;;;;5037228;28;20029;-69
2022/04/19 05:09:57;;;;;;;7.43;1.48;;;25.50;99.90;;;;;;5028407;28;20030;-68
2022/04/19 05:12:24;;;;;;;6.43;1.23;;;25.40;99.90;;;;;;5030922;28;20022;-68
2022/04/19 05:14:51;;;;;;;5.05;0.93;;;25.30;99.90;;;;;;5030504;28;20026;-68
2022/04/19 05:17:19;;;;;;;9.60;1.17;;;25.20;99.90;;;;;;5031537;28;20030;-69
2022/04/19 05:19:46;;;;;;;5.65;1.00;;;25.10;99.90;;;;;;5035303;28;20112;-68
2022/04/19 05:22:13;;;;;;;4.45;0.95;;;25.20;99.90;;;;;;5029976;28;20032;-68
2022/04/19 05:24:40;;;;;;;4.57;0.85;;;25.10;99.90;;;;;;5019983;28;20037;-68
2022/04/19 05:27:08;;;;;;;2.92;0.50;;;25.10;99.90;;;;;;5032505;28;20512;-68
2022/04/19 05:29:35;;;;;;;9.75;0.90;;;25.10;99.90;;;;;;5033117;28;20492;-68
2022/04/19 05:32:02;;;;;;;3.92;0.77;;;25.10;99.90;;;;;;5033930;28;20025;-68
2022/04/19 05:34:29;;;;;;;2.05;0.70;;;25.10;99.90;;;;;;5033728;28;20121;-68
2022/04/19 05:36:57;;;;;;;6.68;0.77;;;25.00;99.90;;;;;;5036527;28;20032;-68
2022/04/19 05:39:24;;;;;;;3.40;0.65;;;24.90;99.90;;;;;;5032092;28;20075;-68
2022/04/19 05:41:51;;;;;;;6.05;0.88;;;25.00;99.90;;;;;;5034135;28;20071;-68
2022/04/19 05:44:21;;;;;;;4.47;0.82;;;24.90;99.90;;;;;;5030101;28;20029;-68
2022/04/19 05:46:50;;;;;;;4.88;0.68;;;24.80;99.90;;;;;;5034402;28;20037;-68
2022/04/19 05:49:18;;;;;;;27.55;3.38;;;24.70;99.90;;;;;;5030172;28;20112;-68
2022/04/19 05:51:45;;;;;;;5.43;1.00;;;24.70;99.90;;;;;;5026293;28;20042;-68
2022/04/19 05:54:12;;;;;;;7.97;1.38;;;24.70;99.90;;;;;;5037413;28;20032;-68
2022/04/19 05:56:39;;;;;;;8.32;1.08;;;24.70;99.90;;;;;;5054438;28;20025;-68
2022/04/19 05:59:06;;;;;;;4.65;1.00;;;24.60;99.90;;;;;;5049603;28;20520;-68
2022/04/19 06:07:04;;;;;;;5.88;1.40;;;24.50;99.90;;;;;;5034137;28;20092;-67
2022/04/19 06:09:31;;;;;;;6.65;0.95;;;24.50;99.90;;;;;;5035779;28;20016;-67
2022/04/19 06:12:00;;;;;;;5.28;0.80;;;24.50;99.90;;;;;;5041345;28;20060;-67
2022/04/19 06:14:27;;;;;;;5.07;0.80;;;24.50;99.90;;;;;;5025270;28;20029;-67
2022/04/19 06:16:55;;;;;;;4.30;0.80;;;24.50;99.90;;;;;;5035060;28;20029;-67
2022/04/19 06:19:22;;;;;;;15.60;2.97;;;24.50;99.90;;;;;;5029357;28;20026;-67
2022/04/19 06:21:49;;;;;;;6.70;1.33;;;24.50;99.90;;;;;;5004627;28;20132;-67
2022/04/19 06:24:17;;;;;;;3.13;0.80;;;24.50;99.90;;;;;;5031569;28;20113;-67
2022/04/19 06:26:44;;;;;;;6.32;0.95;;;24.40;99.90;;;;;;5033545;28;20505;-66
2022/04/19 06:29:11;;;;;;;8.15;1.33;;;24.30;99.90;;;;;;5033316;28;20025;-67
2022/04/19 06:31:40;;;;;;;4.90;0.70;;;24.20;99.90;;;;;;5029023;28;20024;-67
2022/04/19 06:34:08;;;;;;;7.63;0.90;;;24.20;99.90;;;;;;5007846;28;20442;-67
2022/04/19 06:36:35;;;;;;;7.32;1.08;;;24.00;99.90;;;;;;5025359;28;20510;-67
2022/04/19 06:39:02;;;;;;;5.65;1.20;;;23.90;99.90;;;;;;5028909;28;20049;-68
2022/04/19 06:41:29;;;;;;;12.52;1.33;;;23.90;99.90;;;;;;5020564;28;20033;-67
2022/04/19 06:43:58;;;;;;;6.60;1.23;;;23.80;99.90;;;;;;5020248;28;20041;-68
2022/04/19 06:46:29;;;;;;;5.78;1.00;;;23.80;99.90;;;;;;5020670;28;20026;-67
2022/04/19 06:48:59;;;;;;;9.30;1.40;;;23.60;99.90;;;;;;5028795;28;20513;-67
2022/04/19 06:51:26;;;;;;;5.38;1.45;;;23.70;99.90;;;;;;5023242;28;20120;-67
2022/04/19 06:53:54;;;;;;;8.20;1.10;;;23.60;99.90;;;;;;5027769;28;20021;-67
2022/04/19 06:56:21;;;;;;;8.30;0.95;;;23.60;99.90;;;;;;5027988;28;20032;-66
2022/04/19 06:58:49;;;;;;;10.70;1.75;;;23.50;99.90;;;;;;5028404;28;20022;-67
2022/04/19 07:01:16;;;;;;;7.95;1.60;;;23.50;99.90;;;;;;5016366;28;20041;-67
2022/04/19 07:03:43;;;;;;;8.15;1.48;;;23.50;99.90;;;;;;5049791;28;20033;-71
2022/04/19 07:06:11;;;;;;;9.95;1.63;;;23.40;99.90;;;;;;5025757;28;20025;-71
2022/04/19 07:08:38;;;;;;;4.00;0.90;;;23.40;99.90;;;;;;5031708;28;20504;-71
2022/04/19 07:11:05;;;;;;;9.45;2.03;;;23.40;99.90;;;;;;5031533;28;20053;-71
2022/04/19 07:13:32;;;;;;;7.72;1.25;;;23.30;99.90;;;;;;5026955;28;20029;-71
2022/04/19 07:16:00;;;;;;;6.80;1.50;;;23.30;99.90;;;;;;5027760;28;20029;-71
2022/04/19 07:18:27;;;;;;;6.55;1.30;;;23.20;99.90;;;;;;5030208;28;20163;-71
2022/04/19 07:26:45;;;;;;;5.93;1.17;;;23.20;99.90;;;;;;5026865;28;20056;-71
2022/04/19 07:29:13;;;;;;;5.97;1.10;;;23.10;99.90;;;;;;5025221;28;20482;-72
2022/04/19 07:31:42;;;;;;;22.92;3.90;;;23.00;99.90;;;;;;5022424;28;20026;-70
2022/04/19 07:34:10;;;;;;;16.48;3.50;;;23.00;99.90;;;;;;5031914;28;20037;-70
2022/04/19 07:36:39;;;;;;;6.15;1.25;;;23.10;99.90;;;;;;5029485;28;20029;-70
2022/04/19 07:39:08;;;;;;;5.47;1.45;;;23.10;99.90;;;;;;5017524;28;20107;-71
2022/04/19 07:41:35;;;;;;;10.45;1.10;;;23.00;99.90;;;;;;5028502;28;20036;-71
2022/04/19 07:44:04;;;;;;;7.63;1.55;;;23.10;99.90;;;;;;5025811;28;20241;-70
2022/04/19 07:46:33;;;;;;;7.70;1.98;;;23.10;99.90;;;;;;5027085;28;20061;-70
2022/04/19 07:49:00;;;;;;;10.52;1.27;;;23.00;99.90;;;;;;5031335;28;20029;-70
2022/04/19 07:51:27;;;;;;;7.38;1.30;;;23.00;99.90;;;;;;5029762;28;20021;-71
2022/04/19 07:53:55;;;;;;;7.60;1.75;;;22.90;99.90;;;;;;5026779;28;20025;-69
2022/04/19 07:56:23;;;;;;;9.48;2.40;;;22.90;99.90;;;;;;5021958;28;20034;-70
2022/04/19 07:58:50;;;;;;;4.80;1.52;;;22.90;99.90;;;;;;5027284;28;20022;-70
2022/04/19 08:01:18;;;;;;;9.35;3.08;;;23.00;99.90;;;;;;5021637;28;20133;-72
2022/04/19 08:03:46;;;;;;;8.02;1.40;;;22.90;99.90;;;;;;5024932;28;20042;-71
2022/04/19 08:06:13;;;;;;;8.40;1.55;;;22.90;99.90;;;;;;5012579;28;20026;-71
2022/04/19 08:08:43;;;;;;;10.20;1.55;;;22.80;99.90;;;;;;5026639;28;20099;-71
2022/04/19 08:11:10;;;;;;;9.48;1.92;;;22.90;99.90;;;;;;5031978;28;20083;-71
2022/04/19 08:13:38;;;;;;;7.10;1.65;;;22.80;99.90;;;;;;5032664;28;20037;-71
2022/04/19 08:16:06;;;;;;;9.02;1.45;;;22.80;99.90;;;;;;5041207;28;20108;-72
2022/04/19 08:18:33;;;;;;;12.68;2.97;;;22.80;99.90;;;;;;5053373;28;20416;-71
2022/04/19 08:21:00;;;;;;;9.98;1.75;;;22.70;99.90;;;;;;5024194;28;20390;-71
2022/04/19 08:23:27;;;;;;;8.10;1.65;;;22.70;99.90;;;;;;5028889;28;20478;-71
2022/04/19 08:25:55;;;;;;;8.05;1.98;;;22.70;99.90;;;;;;5029810;28;20029;-71
2022/04/19 08:28:22;;;;;;;5.57;1.55;;;22.70;99.90;;;;;;5025559;28;20026;-71
2022/04/19 08:30:49;;;;;;;6.90;1.48;;;22.60;99.90;;;;;;5028384;28;20026;-72
2022/04/19 08:33:17;;;;;;;7.80;0.98;;;22.60;99.90;;;;;;5028632;28;20029;-71
2022/04/19 08:35:44;;;;;;;5.80;1.27;;;22.60;99.90;;;;;;5023613;28;20029;-71
2022/04/19 08:38:11;;;;;;;6.57;1.10;;;22.60;99.90;;;;;;5033388;28;20022;-71
2022/04/19 08:40:38;;;;;;;9.68;1.83;;;22.60;99.90;;;;;;5030568;28;20083;-71
2022/04/19 08:43:06;;;;;;;6.65;1.33;;;22.60;99.90;;;;;;5030705;28;20036;-71
2022/04/19 08:45:33;;;;;;;5.18;1.30;;;22.50;99.90;;;;;;5031471;28;20398;-71
2022/04/19 08:48:01;;;;;;;9.05;1.20;;;22.50;99.90;;;;;;5030972;28;20025;-71
2022/04/19 08:50:30;;;;;;;6.88;1.42;;;22.50;99.90;;;;;;5031147;28;20021;-71
2022/04/19 08:58:30;;;;;;;5.35;1.23;;;22.50;99.90;;;;;;5013503;28;20037;-71
2022/04/19 09:00:57;;;;;;;6.57;0.90;;;22.50;99.90;;;;;;5028227;28;20075;-71
2022/04/19 09:03:25;;;;;;;4.93;1.40;;;22.60;99.90;;;;;;5014961;28;20107;-71
2022/04/19 09:05:53;;;;;;;10.55;1.08;;;22.60;99.90;;;;;;5031372;28;20053;-71
2022/04/19 09:08:20;;;;;;;6.45;1.17;;;22.60;99.90;;;;;;5032615;28;20032;-71
2022/04/19 09:10:50;;;;;;;6.20;0.82;;;22.60;99.90;;;;;;5029487;28;20026;-71
2022/04/19 09:13:22;;;;;;;4.47;1.20;;;22.60;99.90;;;;;;5030958;28;20034;-72
2022/04/19 09:15:52;;;;;;;10.10;1.45;;;22.60;99.90;;;;;;5029388;28;20082;-71
2022/04/19 09:18:30;;;;;;;6.63;1.30;;;22.50;99.90;;;;;;5016835;28;20017;-71
2022/04/19 09:21:06;;;;;;;5.18;1.17;;;22.50;99.90;;;;;;5031378;28;20032;-72
2022/04/19 09:23:35;;;;;;;8.27;1.30;;;22.60;99.90;;;;;;5033302;28;20080;-71
2022/04/19 09:26:08;;;;;;;7.13;1.13;;;22.50;99.90;;;;;;5025861;28;20079;-72
2022/04/19 09:28:36;;;;;;;9.65;1.55;;;22.50;99.90;;;;;;5026376;28;20040;-72
2022/04/19 09:31:15;;;;;;;9.75;1.70;;;22.50;99.90;;;;;;5030334;28;20722;-72
2022/04/19 09:33:43;;;;;;;9.25;2.28;;;22.40;99.90;;;;;;5025607;28;20038;-72
2022/04/19 09:36:10;;;;;;;8.13;1.60;;;22.40;99.90;;;;;;5023943;28;20107;-72
2022/04/19 09:38:38;;;;;;;5.53;1.40;;;22.40;99.90;;;;;;5029663;28;20033;-72
2022/04/19 09:41:17;;;;;;;12.40;1.08;;;22.40;99.90;;;;;;5030298;28;20030;-72
2022/04/19 09:43:44;;;;;;;4.88;1.48;;;22.40;99.90;;;;;;5026989;28;20036;-71
2022/04/19 09:46:15;;;;;;;7.63;1.70;;;22.40;99.90;;;;;;5026156;28;20385;-72
2022/04/19 09:48:45;;;;;;;8.93;1.67;;;22.30;99.90;;;;;;5027495;28;20030;-72
2022/04/19 09:51:14;;;;;;;9.45;1.40;;;22.30;99.90;;;;;;5030933;28;20516;-72
2022/04/19 09:53:42;;;;;;;10.40;1.50;;;22.30;99.90;;;;;;5030583;28;20104;-72
2022/04/19 09:56:16;;;;;;;8.35;2.28;;;22.30;99.90;;;;;;5031400;28;20036;-72
2022/04/19 09:58:46;;;;;;;9.82;1.30;;;22.30;99.90;;;;;;5032809;28;20093;-72
2022/04/19 10:09:39;;;;;;;9.88;1.48;;;22.20;99.90;;;;;;5030866;28;20042;-72
2022/04/19 10:12:12;;;;;;;5.60;0.90;;;22.20;99.90;;;;;;5029923;28;20026;-72
2022/04/19 10:14:40;;;;;;;6.90;1.73;;;22.30;99.90;;;;;;5032513;28;20025;-71
2022/04/19 10:17:07;;;;;;;5.07;1.23;;;22.30;99.90;;;;;;5032873;28;20057;-71
2022/04/19 10:19:34;;;;;;;7.45;1.15;;;22.20;99.90;;;;;;5029399;28;20037;-71
2022/04/19 10:22:10;;;;;;;10.98;1.23;;;22.20;99.90;;;;;;5019925;28;20025;-71
2022/04/19 10:24:48;;;;;;;9.60;1.95;;;22.30;99.90;;;;;;5030496;28;20029;-72
2022/04/19 10:27:15;;;;;;;10.32;1.15;;;22.20;99.90;;;;;;5029994;28;20075;-71
2022/04/19 10:29:46;;;;;;;13.23;1.35;;;22.20;99.90;;;;;;5033277;28;20458;-71
2022/04/19 10:32:13;;;;;;;4.55;1.05;;;22.20;99.90;;;;;;5035446;28;20034;-71
2022/04/19 10:34:44;;;;;;;8.27;1.63;;;22.20;99.90;;;;;;5034856;28;20375;-71
2022/04/19 10:37:21;;;;;;;8.35;1.80;;;22.20;99.90;;;;;;5029335;28;20021;-72
2022/04/19 10:39:50;;;;;;;6.95;1.40;;;22.20;99.90;;;;;;5031281;28;20042;-71
2022/04/19 10:42:37;;;;;;;9.50;1.75;;;22.20;99.90;;;;;;5036124;28;20026;-71
2022/04/19 10:45:14;;;;;;;9.85;1.42;;;22.20;99.90;;;;;;5031580;28;20045;-71
2022/04/19 10:47:58;;;;;;;6.53;1.63;;;22.20;99.90;;;;;;5033586;28;20112;-71
2022/04/19 10:50:32;;;;;;;6.13;1.45;;;22.20;99.90;;;;;;5035156;28;20037;-71
2022/04/19 10:53:00;;;;;;;;;;;22.20;99.90;;;;;;5036242;28;20021;-72
2022/04/19 10:55:29;;;;;;;7.60;2.33;;;22.20;99.90;;;;;;5033709;28;20347;-72
2022/04/19 10:58:07;;;;;;;5.85;1.17;;;22.20;99.90;;;;;;5033373;28;20021;-72
2022/04/19 11:00:47;;;;;;;8.05;1.10;;;22.20;99.90;;;;;;5032484;28;20053;-71
2022/04/19 11:03:18;;;;;;;6.63;1.10;;;22.20;99.90;;;;;;5032896;28;20184;-71
2022/04/19 11:05:50;;;;;;;7.03;1.17;;;22.20;99.90;;;;;;5041428;28;20032;-72
2022/04/19 11:08:26;;;;;;;10.05;1.17;;;22.20;99.90;;;;;;5032395;28;20163;-71
2022/04/19 11:11:24;;;;;;;7.57;1.23;;;22.20;99.90;;;;;;5031896;28;20587;-71
2022/04/19 11:14:18;;;;;;;8.60;1.27;;;22.20;99.90;;;;;;5033342;28;20390;-72
2022/04/19 11:16:51;;;;;;;9.15;1.23;;;22.20;99.90;;;;;;4980798;28;20061;-71
2022/04/19 11:19:25;;;;;;;12.05;2.10;;;22.20;99.90;;;;;;5029950;28;20029;-71
2022/04/19 11:21:58;;;;;;;6.85;1.20;;;22.20;99.90;;;;;;5032747;28;20100;-71
2022/04/19 11:25:04;;;;;;;6.38;0.82;;;22.20;99.90;;;;;;5033175;28;20394;-71
2022/04/19 11:28:03;;;;;;;9.93;1.40;;;22.30;99.90;;;;;;5017223;28;20456;-72
2022/04/19 11:30:30;;;;;;;10.35;1.00;;;22.30;99.90;;;;;;4961178;28;20560;-71
2022/04/19 11:32:59;;;;;;;11.07;1.42;;;22.10;99.90;;;;;;5025256;28;20029;-69
2022/04/19 11:35:31;;;;;;;2.92;0.30;;;20.10;99.90;;;;;;5030785;28;20120;-69
2022/04/19 11:38:03;;;;;;;8.80;1.30;;;19.10;99.90;;;;;;5017722;28;20030;-68
2022/04/19 11:48:51;;;;;;;3.60;0.75;;;16.30;99.90;;;;;;5030647;28;20025;-68
2022/04/19 11:51:20;;;;;;;5.20;0.73;;;16.40;99.90;;;;;;5029728;28;20032;-69
2022/04/19 11:53:50;;;;;;;3.38;0.50;;;16.40;99.90;;;;;;5023543;28;20058;-68
2022/04/19 11:56:17;;;;;;;8.00;0.80;;;16.40;99.90;;;;;;5020370;28;20021;-68
2022/04/19 11:58:52;;;;;;;6.60;0.90;;;16.40;99.90;;;;;;5027199;28;20029;-68
2022/04/19 12:01:20;;;;;;;6.88;0.85;;;16.50;99.90;;;;;;5030555;28;20099;-68
2022/04/19 12:03:47;;;;;;;3.45;0.57;;;16.30;99.90;;;;;;5031573;28;20117;-68
2022/04/19 12:06:20;;;;;;;3.25;0.45;;;16.30;99.90;;;;;;5029199;28;20025;-68
2022/04/19 12:08:53;;;;;;;2.75;0.40;;;16.30;99.90;;;;;;5029101;28;20029;-68
2022/04/19 12:11:26;;;;;;;6.03;0.85;;;16.30;99.90;;;;;;5034564;28;20032;-69
2022/04/19 12:13:55;;;;;;;3.10;0.40;;;16.40;99.90;;;;;;5024787;28;20083;-69
2022/04/19 12:16:36;;;;;;;2.17;0.57;;;16.50;99.90;;;;;;5031181;28;20044;-69
2022/04/19 12:19:12;;;;;;;4.35;0.63;;;16.50;99.90;;;;;;5029641;28;20077;-68
2022/04/19 12:21:46;;;;;;;6.72;0.60;;;16.60;99.90;;;;;;5026377;28;20025;-68
2022/04/19 12:24:28;;;;;;;2.50;0.90;;;16.70;99.90;;;;;;5031580;28;20033;-69
2022/04/19 12:27:05;;;;;;;4.18;0.75;;;16.80;99.90;;;;;;5031557;28;20021;-68
2022/04/19 12:29:34;;;;;;;2.92;0.57;;;17.00;99.90;;;;;;5024880;28;20029;-68
2022/04/19 12:32:03;;;;;;;3.40;0.55;;;17.10;99.90;;;;;;5019293;28;20048;-69
2022/04/19 12:34:38;;;;;;;2.60;0.50;;;17.10;99.90;;;;;;5030721;28;20040;-69
2022/04/19 12:37:13;;;;;;;1.40;0.50;;;17.00;99.90;;;;;;5032494;28;20477;-69
2022/04/19 12:39:41;;;;;;;5.85;0.75;;;16.90;99.90;;;;;;5027923;28;20029;-69
2022/04/19 12:42:11;;;;;;;5.90;0.63;;;16.90;99.90;;;;;;5030389;28;20036;-68
2022/04/19 12:44:40;;;;;;;4.15;0.50;;;16.90;99.90;;;;;;5033061;28;20037;-68
2022/04/19 12:47:16;;;;;;;3.58;0.75;;;16.80;99.90;;;;;;5032423;28;20030;-69
2022/04/19 12:49:45;;;;;;;3.85;0.73;;;16.80;99.90;;;;;;5027807;28;20029;-68
2022/04/19 12:52:13;;;;;;;2.78;0.63;;;16.80;99.90;;;;;;5030377;28;20045;-68
2022/04/19 12:54:43;;;;;;;5.47;0.60;;;16.90;99.90;;;;;;5028880;28;20029;-69
2022/04/19 12:57:14;;;;;;;1.15;0.43;;;17.10;99.90;;;;;;5013593;28;20390;-69
2022/04/19 12:59:45;;;;;;;2.20;0.35;;;17.00;99.90;;;;;;5022348;28;20022;-68
2022/04/19 13:02:15;;;;;;;1.05;0.30;;;16.90;99.90;;;;;;5017830;28;20049;-68
2022/04/19 13:04:43;;;;;;;1.90;0.35;;;16.90;99.90;;;;;;5032413;28;20069;-69
2022/04/19 13:12:43;;;;;;;1.38;0.35;;;17.00;99.90;;;;;;5026217;28;20144;-68
2022/04/19 13:15:11;;;;;;;1.45;0.30;;;17.00;99.90;;;;;;5032059;28;20027;-68
2022/04/19 13:17:41;;;;;;;3.03;0.40;;;16.90;99.90;;;;;;5030649;28;20712;-69
2022/04/19 13:20:10;;;;;;;1.58;0.35;;;17.00;99.90;;;;;;5025118;28;20448;-68
2022/04/19 13:22:37;;;;;;;1.85;0.40;;;17.20;99.90;;;;;;5031502;28;20025;-68
2022/04/19 13:25:07;;;;;;;2.95;0.50;;;17.30;99.90;;;;;;5032980;28;20063;-68
2022/04/19 13:27:36;;;;;;;1.58;0.40;;;17.20;99.90;;;;;;5033698;28;20037;-68
2022/04/19 13:30:05;;;;;;;2.40;0.32;;;17.20;99.90;;;;;;5033607;28;20100;-68
2022/04/19 13:32:32;;;;;;;1.17;0.20;;;17.30;99.90;;;;;;5030993;28;20661;-68
2022/04/19 13:34:59;;;;;;;2.67;0.40;;;17.20;99.90;;;;;;5028715;28;20030;-69
2022/04/19 13:40:12;;;;;;;2.35;0.50;;;17.10;99.90;;;;;;5030295;28;20048;-68
2022/04/19 13:42:41;;;;;;;1.67;0.35;;;17.20;99.90;;;;;;5031857;28;20072;-69
2022/04/19 13:45:09;;;;;;;2.20;0.47;;;17.10;99.90;;;;;;5032850;28;20039;-68
2022/04/19 13:47:36;;;;;;;2.83;0.57;;;17.00;99.90;;;;;;5031326;28;20478;-68
2022/04/19 13:50:05;;;;;;;2.20;0.40;;;17.00;99.90;;;;;;5028493;28;20108;-68